Time,TemperatureF,DewpointF,PressureIn,WindDirection,WindDirectionDegrees,WindSpeedMPH,WindSpeedGustMPH,Humidity,HourlyPrecipIn,Conditions,Clouds,dailyrainin,SoftwareType,DateUTC
2013-06-20 00:09:00,80.8,74.4,29.90,ESE,112,2.7,-999.0,81,-99.99,,,0.00,Acu-Link.com,2013-06-20 05:09:00,
2013-06-20 00:24:00,80.4,74.4,29.89,SSW,202,3.2,-999.0,82,-99.99,,,0.00,Acu-Link.com,2013-06-20 05:24:00,
2013-06-20 00:39:00,80.2,74.2,29.89,SSE,157,3.7,-999.0,82,-99.99,,,0.00,Acu-Link.com,2013-06-20 05:39:00,
2013-06-20 00:55:00,80.2,74.6,29.88,SSW,202,2.7,-999.0,83,-99.99,,,0.00,Acu-Link.com,2013-06-20 05:55:00,
2013-06-20 01:10:00,80.1,74.5,29.88,South,180,2.2,-999.0,83,-99.99,,,0.00,Acu-Link.com,2013-06-20 06:10:00,
2013-06-20 01:25:00,79.9,74.6,29.89,SE,135,0.0,-999.0,84,-99.99,,,0.00,Acu-Link.com,2013-06-20 06:25:00,
2013-06-20 01:40:00,79.7,74.4,29.88,South,180,2.7,-999.0,84,-99.99,,,0.00,Acu-Link.com,2013-06-20 06:40:00,
2013-06-20 01:55:00,79.5,74.6,29.87,South,180,1.1,-999.0,85,-99.99,,,0.00,Acu-Link.com,2013-06-20 06:55:00,
2013-06-20 02:10:00,79.3,74.7,29.87,South,180,2.2,-999.0,86,-99.99,,,0.00,Acu-Link.com,2013-06-20 07:10:00,
2013-06-20 02:25:00,79.2,74.6,29.87,SSE,157,2.7,-999.0,86,-99.99,,,0.00,Acu-Link.com,2013-06-20 07:25:00,
2013-06-20 02:40:00,79.2,74.6,29.87,ESE,112,2.2,-999.0,86,-99.99,,,0.00,Acu-Link.com,2013-06-20 07:40:00,
2013-06-20 02:55:00,78.8,74.6,29.86,SE,135,2.2,-999.0,87,-99.99,,,0.00,Acu-Link.com,2013-06-20 07:55:00,
2013-06-20 03:11:00,79.0,74.8,29.85,SSE,157,2.7,-999.0,87,-99.99,,,0.00,Acu-Link.com,2013-06-20 08:11:00,
2013-06-20 03:27:00,78.8,74.6,29.84,SE,135,2.2,-999.0,87,-99.99,,,0.00,Acu-Link.com,2013-06-20 08:27:00,
2013-06-20 03:42:00,78.6,74.7,29.86,SSE,157,1.1,-999.0,88,-99.99,,,0.00,Acu-Link.com,2013-06-20 08:42:00,
2013-06-20 03:57:00,78.4,74.5,29.86,SSE,157,1.1,-999.0,88,-99.99,,,0.00,Acu-Link.com,2013-06-20 08:57:00,
2013-06-20 04:12:00,78.3,74.4,29.85,ENE,67,2.7,-999.0,88,-99.99,,,0.00,Acu-Link.com,2013-06-20 09:12:00,
2013-06-20 04:27:00,77.9,74.4,29.84,East,90,1.1,-999.0,89,-99.99,,,0.00,Acu-Link.com,2013-06-20 09:27:00,
2013-06-20 04:42:00,77.7,74.5,29.86,South,180,0.0,-999.0,90,-99.99,,,0.00,Acu-Link.com,2013-06-20 09:42:00,
2013-06-20 04:57:00,77.7,74.9,29.86,SE,135,0.0,-999.0,91,-99.99,,,0.00,Acu-Link.com,2013-06-20 09:57:00,
2013-06-20 05:12:00,77.7,74.9,29.85,ESE,112,2.2,-999.0,91,-99.99,,,0.00,Acu-Link.com,2013-06-20 10:12:00,
2013-06-20 05:27:00,77.7,74.9,29.84,East,90,2.2,-999.0,91,-99.99,,,0.00,Acu-Link.com,2013-06-20 10:27:00,
2013-06-20 05:43:00,78.1,75.3,29.85,East,90,3.2,-999.0,91,-99.99,,,0.00,Acu-Link.com,2013-06-20 10:43:00,
2013-06-20 05:58:00,78.3,75.4,29.85,SSW,202,2.2,-999.0,91,-99.99,,,0.00,Acu-Link.com,2013-06-20 10:58:00,
2013-06-20 06:13:00,78.3,75.1,29.86,ESE,112,1.7,-999.0,90,-99.99,,,0.00,Acu-Link.com,2013-06-20 11:13:00,
2013-06-20 06:28:00,78.3,75.1,29.86,ESE,112,0.0,-999.0,90,-99.99,,,0.00,Acu-Link.com,2013-06-20 11:28:00,
2013-06-20 06:43:00,78.3,75.1,29.85,SE,135,1.1,-999.0,90,-99.99,,,0.00,Acu-Link.com,2013-06-20 11:43:00,
2013-06-20 06:58:00,78.4,75.2,29.87,SSE,157,1.1,-999.0,90,-99.99,,,0.00,Acu-Link.com,2013-06-20 11:58:00,
2013-06-20 07:13:00,78.4,75.2,29.87,ESE,112,0.0,-999.0,90,-99.99,,,0.00,Acu-Link.com,2013-06-20 12:13:00,
2013-06-20 07:28:00,78.8,75.6,29.87,SSE,157,0.0,-999.0,90,-99.99,,,0.00,Acu-Link.com,2013-06-20 12:28:00,
2013-06-20 07:43:00,79.5,76.3,29.87,East,90,1.7,-999.0,90,-99.99,,,0.00,Acu-Link.com,2013-06-20 12:43:00,
2013-06-20 07:59:00,80.6,76.4,29.88,South,180,1.1,-999.0,87,-99.99,,,0.00,Acu-Link.com,2013-06-20 12:59:00,
2013-06-20 08:14:00,81.7,76.7,29.88,ESE,112,4.7,-999.0,85,-99.99,,,0.00,Acu-Link.com,2013-06-20 13:14:00,
2013-06-20 08:29:00,83.5,77.0,29.88,SSE,157,3.2,-999.0,81,-99.99,,,0.00,Acu-Link.com,2013-06-20 13:29:00,
2013-06-20 08:44:00,84.7,75.9,29.89,ESE,112,7.8,-999.0,75,-99.99,,,0.00,Acu-Link.com,2013-06-20 13:44:00,
2013-06-20 08:59:00,85.1,75.4,29.90,South,180,3.7,-999.0,73,-99.99,,,0.00,Acu-Link.com,2013-06-20 13:59:00,
2013-06-20 09:14:00,86.9,76.3,29.90,SSE,157,3.2,-999.0,71,-99.99,,,0.00,Acu-Link.com,2013-06-20 14:14:00,
2013-06-20 09:29:00,87.6,76.1,29.89,SE,135,5.8,-999.0,69,-99.99,,,0.00,Acu-Link.com,2013-06-20 14:29:00,
2013-06-20 09:44:00,88.5,76.6,29.89,ESE,112,4.2,-999.0,68,-99.99,,,0.00,Acu-Link.com,2013-06-20 14:44:00,
2013-06-20 09:59:00,89.1,75.8,29.90,East,90,4.2,-999.0,65,-99.99,,,0.00,Acu-Link.com,2013-06-20 14:59:00,
2013-06-20 10:15:00,91.2,76.3,29.90,ENE,67,6.3,-999.0,62,-99.99,,,0.00,Acu-Link.com,2013-06-20 15:15:00,
2013-06-20 10:30:00,92.5,78.0,29.90,East,90,10.4,-999.0,63,-99.99,,,0.00,Acu-Link.com,2013-06-20 15:30:00,
2013-06-20 10:45:00,91.8,76.9,29.90,East,90,5.8,-999.0,62,-99.99,,,0.00,Acu-Link.com,2013-06-20 15:45:00,
2013-06-20 11:00:00,91.8,76.9,29.91,ESE,112,6.3,-999.0,62,-99.99,,,0.00,Acu-Link.com,2013-06-20 16:00:00,
2013-06-20 11:15:00,91.9,77.0,29.91,SE,135,4.2,-999.0,62,-99.99,,,0.00,Acu-Link.com,2013-06-20 16:15:00,
2013-06-20 11:30:00,92.1,77.2,29.90,ESE,112,9.9,-999.0,62,-99.99,,,0.00,Acu-Link.com,2013-06-20 16:30:00,
2013-06-20 11:46:00,94.1,77.5,29.90,East,90,4.7,-999.0,59,-99.99,,,0.00,Acu-Link.com,2013-06-20 16:46:00,
2013-06-20 12:01:00,93.4,76.9,29.90,ENE,67,4.7,-999.0,59,-99.99,,,0.00,Acu-Link.com,2013-06-20 17:01:00,
2013-06-20 12:16:00,92.8,76.8,29.90,ESE,112,6.3,-999.0,60,-99.99,,,0.00,Acu-Link.com,2013-06-20 17:16:00,
2013-06-20 12:31:00,95.4,77.7,29.90,ESE,112,6.3,-999.0,57,-99.99,,,0.00,Acu-Link.com,2013-06-20 17:31:00,
2013-06-20 12:46:00,95.2,77.0,29.91,East,90,11.4,-999.0,56,-99.99,,,0.00,Acu-Link.com,2013-06-20 17:46:00,
2013-06-20 13:01:00,96.3,76.9,29.91,ENE,67,11.4,-999.0,54,-99.99,,,0.00,Acu-Link.com,2013-06-20 18:01:00,
2013-06-20 13:16:00,96.1,76.7,29.91,ENE,67,5.8,-999.0,54,-99.99,,,0.00,Acu-Link.com,2013-06-20 18:16:00,
2013-06-20 13:31:00,95.2,76.4,29.89,East,90,3.7,-999.0,55,-99.99,,,0.00,Acu-Link.com,2013-06-20 18:31:00,
2013-06-20 13:46:00,95.5,76.7,29.89,South,180,8.9,-999.0,55,-99.99,,,0.00,Acu-Link.com,2013-06-20 18:46:00,
2013-06-20 14:02:00,94.8,77.1,29.89,ENE,67,3.7,-999.0,57,-99.99,,,0.00,Acu-Link.com,2013-06-20 19:02:00,
2013-06-20 14:17:00,95.5,77.8,29.89,ESE,112,14.0,-999.0,57,-99.99,,,0.00,Acu-Link.com,2013-06-20 19:17:00,
2013-06-20 14:32:00,95.4,77.7,29.88,East,90,8.9,-999.0,57,-99.99,,,0.00,Acu-Link.com,2013-06-20 19:32:00,
2013-06-20 14:47:00,95.0,77.9,29.88,South,180,5.8,-999.0,58,-99.99,,,0.00,Acu-Link.com,2013-06-20 19:47:00,
2013-06-20 15:02:00,95.0,77.9,29.87,East,90,4.2,-999.0,58,-99.99,,,0.00,Acu-Link.com,2013-06-20 20:02:00,
2013-06-20 15:17:00,93.2,77.7,29.87,ESE,112,5.3,-999.0,61,-99.99,,,0.00,Acu-Link.com,2013-06-20 20:17:00,
2013-06-20 15:32:00,92.5,77.5,29.88,ENE,67,10.9,-999.0,62,-99.99,,,0.00,Acu-Link.com,2013-06-20 20:32:00,
2013-06-20 15:47:00,91.9,77.5,29.87,ENE,67,9.4,-999.0,63,-99.99,,,0.00,Acu-Link.com,2013-06-20 20:47:00,
2013-06-20 16:02:00,92.7,77.2,29.86,East,90,8.3,-999.0,61,-99.99,,,0.00,Acu-Link.com,2013-06-20 21:02:00,
2013-06-20 16:18:00,94.3,77.7,29.86,NE,45,5.8,-999.0,59,-99.99,,,0.00,Acu-Link.com,2013-06-20 21:18:00,
2013-06-20 16:33:00,93.4,77.9,29.86,East,90,5.3,-999.0,61,-99.99,,,0.00,Acu-Link.com,2013-06-20 21:33:00,
2013-06-20 16:48:00,90.9,77.0,29.86,East,90,13.5,-999.0,64,-99.99,,,0.00,Acu-Link.com,2013-06-20 21:48:00,
2013-06-20 17:03:00,92.1,77.7,29.85,East,90,10.9,-999.0,63,-99.99,,,0.00,Acu-Link.com,2013-06-20 22:03:00,
2013-06-20 17:18:00,91.9,77.9,29.85,SSE,157,7.8,-999.0,64,-99.99,,,0.00,Acu-Link.com,2013-06-20 22:18:00,
2013-06-20 17:33:00,91.0,77.6,29.85,East,90,6.3,-999.0,65,-99.99,,,0.00,Acu-Link.com,2013-06-20 22:33:00,
2013-06-20 17:48:00,91.0,77.6,29.85,East,90,4.7,-999.0,65,-99.99,,,0.00,Acu-Link.com,2013-06-20 22:48:00,
2013-06-20 18:03:00,89.6,77.6,29.85,East,90,9.9,-999.0,68,-99.99,,,0.00,Acu-Link.com,2013-06-20 23:03:00,
2013-06-20 18:18:00,89.2,77.2,29.85,SE,135,14.5,-999.0,68,-99.99,,,0.00,Acu-Link.com,2013-06-20 23:18:00,
2013-06-20 18:34:00,89.1,77.1,29.84,East,90,6.3,-999.0,68,-99.99,,,0.00,Acu-Link.com,2013-06-20 23:34:00,
2013-06-20 18:49:00,88.5,77.4,29.85,ESE,112,4.2,-999.0,70,-99.99,,,0.00,Acu-Link.com,2013-06-20 23:49:00,
2013-06-20 19:04:00,87.3,76.7,29.85,ESE,112,5.8,-999.0,71,-99.99,,,0.00,Acu-Link.com,2013-06-21 00:04:00,
2013-06-20 19:19:00,86.4,76.7,29.85,SE,135,8.9,-999.0,73,-99.99,,,0.00,Acu-Link.com,2013-06-21 00:19:00,
2013-06-20 19:34:00,85.8,76.1,29.84,SE,135,7.3,-999.0,73,-99.99,,,0.00,Acu-Link.com,2013-06-21 00:34:00,
2013-06-20 19:49:00,85.3,76.5,29.86,ESE,112,6.8,-999.0,75,-99.99,,,0.00,Acu-Link.com,2013-06-21 00:49:00,
2013-06-20 20:04:00,84.7,75.9,29.87,ENE,67,7.8,-999.0,75,-99.99,,,0.00,Acu-Link.com,2013-06-21 01:04:00,
2013-06-20 20:19:00,84.2,75.8,29.86,East,90,7.8,-999.0,76,-99.99,,,0.00,Acu-Link.com,2013-06-21 01:19:00,
2013-06-20 20:35:00,83.7,75.7,29.85,ENE,67,10.9,-999.0,77,-99.99,,,0.00,Acu-Link.com,2013-06-21 01:35:00,
2013-06-20 20:50:00,83.5,75.5,29.87,East,90,6.8,-999.0,77,-99.99,,,0.00,Acu-Link.com,2013-06-21 01:50:00,
2013-06-20 21:05:00,83.3,75.7,29.87,SE,135,11.9,-999.0,78,-99.99,,,0.00,Acu-Link.com,2013-06-21 02:05:00,
2013-06-20 21:20:00,83.1,75.5,29.87,SE,135,6.3,-999.0,78,-99.99,,,0.00,Acu-Link.com,2013-06-21 02:20:00,
2013-06-20 21:35:00,82.9,75.7,29.86,ENE,67,4.2,-999.0,79,-99.99,,,0.00,Acu-Link.com,2013-06-21 02:35:00,
2013-06-20 21:50:00,82.8,75.6,29.87,SSE,157,6.8,-999.0,79,-99.99,,,0.00,Acu-Link.com,2013-06-21 02:50:00,
2013-06-20 22:05:00,82.6,75.4,29.88,ENE,67,4.7,-999.0,79,-99.99,,,0.00,Acu-Link.com,2013-06-21 03:05:00,
2013-06-20 22:20:00,82.4,75.6,29.89,ESE,112,9.4,-999.0,80,-99.99,,,0.00,Acu-Link.com,2013-06-21 03:20:00,
2013-06-20 22:35:00,82.4,75.6,29.90,ESE,112,6.3,-999.0,80,-99.99,,,0.00,Acu-Link.com,2013-06-21 03:35:00,
2013-06-20 22:51:00,82.4,75.6,29.90,ESE,112,2.7,-999.0,80,-99.99,,,0.00,Acu-Link.com,2013-06-21 03:51:00,
2013-06-20 23:06:00,82.4,75.2,29.91,East,90,6.3,-999.0,79,-99.99,,,0.00,Acu-Link.com,2013-06-21 04:06:00,
2013-06-20 23:21:00,82.4,75.2,29.92,SSW,202,4.2,-999.0,79,-99.99,,,0.00,Acu-Link.com,2013-06-21 04:21:00,
2013-06-20 23:36:00,82.0,75.2,29.92,ENE,67,3.2,-999.0,80,-99.99,,,0.00,Acu-Link.com,2013-06-21 04:36:00,
2013-06-20 23:51:00,81.9,75.1,29.92,NE,45,6.3,-999.0,80,-99.99,,,0.00,Acu-Link.com,2013-06-21 04:51:00,